PENO2: Grand Lake O' The Cherokees, Pensacola Dm

Data processed at Tue Jan 02 2018 23:31


All information presented herein is the property of the government of the United States of America and may be revised or deleted at any time without prior notice.
Dissemination of this information without the expressed written consent of the Public Affairs Office, Tulsa District U.S. Army Corps of Engineers is strictly prohibited.
These data are gathered electronically and, as presented, have not undergone any form of quality control. These data are not guaranteed to be valid or correct.
Go to home page.
Go to station list.

Upstream stations:

Downstream station:
Previous Day
Next Day
Current Day
    
SHEF ID:       PENO2     Lake O' the Cherokees at Langley
STATION TYPE:  RESERVOIR

               PRECIP ELEVATION   STORAGE    INFLOW   RELEASE  AIR-TEMP  WIND-DIRWIND-SPEED REL-HUMID SOLAR-RAD   VOLTAGE  BAT-LOAD
                   in        ft     ac-ft       cfs       cfs         F       deg       mph         %      W/m2      volt      volt
              Ccp-Rev   Ccp-Rev   Ccp-Rev  Regi-Rev  Regi-Rev   Ccp-Rev   Ccp-Rev   Ccp-Rev   Ccp-Rev   Ccp-Rev   Ccp-Rev   Ccp-Rev
(US/Central)
12/31 00:00      0.00    742.12   1397536       777         0     25.03    352.17     11.66     68.86      0.00     12.68     12.41
12/31 01:00      0.00    742.12   1397536       615         0     23.00    345.80     14.38     70.38      0.00     12.67     12.41
12/31 02:00      0.00    742.15   1398745         0         0     21.06    344.35     16.71     74.40      0.00     12.65     12.41
12/31 03:00      0.00    742.20   1400760         0         0     19.67    343.82     17.96     81.38      0.00     12.62     12.33
12/31 04:00      0.00    742.15   1398745         0         0     18.36    340.91     19.22     84.89      0.00     12.61     12.33
12/31 05:00      0.00    742.14   1398342         0         0     17.13    346.17     16.62     90.01      0.00     12.59     12.33
12/31 06:00      0.00    742.14   1398342         0         0     16.93    347.34     16.32     88.26      0.00     12.56     12.33
12/31 07:00      0.00    742.13   1397939         0         0     16.83    344.64     15.19     80.79      0.00     12.55     12.25
12/31 08:00      0.00    742.13   1397939         0         0     16.21    344.68     16.13     81.94      1.85     12.53     12.25
12/31 09:00      0.00    742.14   1398342         0         0     15.71    349.42     14.79     81.26     27.68     12.51     12.17
12/31 10:00      0.00    742.13   1397939         0         0     15.91    348.78     16.20     79.29    195.78     12.50     12.17
12/31 11:00      0.00    742.15   1398745         0         0     16.48    352.09     15.36     73.25    395.19     12.49     12.17
12/31 12:00      0.00    742.14   1398342         0         0     17.96    351.94     14.33     64.37    494.57     12.49     12.17
12/31 13:00      0.00    742.13   1397939         0         0     19.11    345.59     15.70     58.91    532.28     12.48     12.17
12/31 14:00      0.00    742.15   1398745         0         0     20.23    349.34     15.78     55.74    457.70     13.52     13.21
12/31 15:00      0.00    742.14   1398342         0         0     20.35    344.61     18.00     57.30    307.66     13.54     13.21
12/31 16:00      0.00    742.19   1400357         0         0     20.66    345.47     17.45     58.24    248.13     13.51     13.21
12/31 17:00      0.00    742.13   1397939         0         0     20.41    349.40     16.33     61.45     81.16     13.57     13.13
12/31 18:00      0.00    742.12   1397536         0      4100     19.56    350.05     15.27     64.46      0.00     13.00     13.05
12/31 19:00      0.00    742.13   1397939         0      6782     18.64    352.50     13.17     67.51      0.00     12.89     12.65
12/31 20:00      0.00    742.12   1397536         0      4048     17.91    355.24     15.75     70.01      0.00     12.83     12.57
12/31 21:00      0.00    742.13   1397939         0      1185     17.29    353.70     17.79     72.54      0.00     12.80     12.57
12/31 22:00      0.00    742.13   1397939         0         0     16.43    354.17     16.78     74.62      0.00     12.77     12.49
12/31 23:00      0.00    742.16   1399148         0         0     15.44    352.63     17.17     78.18      0.00     12.74     12.49